Time;durP1;ratioP1;P1;durP2;ratioP2;P2;SDS_P1;SDS_P2;PMS_P1;PMS_P2;Temp;Humidity;BMP_temperature;BMP_pressure;BME280_temperature;BME280_humidity;BME280_pressure;Samples;Min_cycle;Max_cycle;Signal;HPM_P1;HPM_P2
2023/09/02 00:01:20;;;;;;;17.00;12.10;;;;;;;;;;12887339;23;19988;-77
2023/09/02 00:06:20;;;;;;;16.30;11.10;;;;;;;;;;12887415;23;19996;-77
2023/09/02 00:11:20;;;;;;;15.20;11.75;;;;;;;;;;12887541;23;20186;-76
2023/09/02 00:16:21;;;;;;;15.20;11.52;;;;;;;;;;12838883;23;20068;-75
2023/09/02 00:21:21;;;;;;;15.23;11.63;;;;;;;;;;12886543;23;19992;-75
2023/09/02 00:26:21;;;;;;;13.47;9.93;;;;;;;;;;12886997;23;20038;-77
2023/09/02 00:31:22;;;;;;;13.55;11.18;;;;;;;;;;12888012;23;19988;-77
2023/09/02 00:36:22;;;;;;;15.88;10.68;;;;;;;;;;12886614;23;20000;-76
2023/09/02 00:41:26;;;;;;;15.65;10.50;;;;;;;;;;12886190;23;19989;-76
2023/09/02 00:46:27;;;;;;;15.10;12.05;;;;;;;;;;12885755;23;20278;-76
2023/09/02 00:51:27;;;;;;;16.37;12.13;;;;;;;;;;12885963;23;20210;-76
2023/09/02 00:56:28;;;;;;;17.60;12.40;;;;;;;;;;12885939;23;20020;-77
2023/09/02 01:01:30;;;;;;;20.58;12.82;;;;;;;;;;12885494;23;19984;-76
2023/09/02 01:06:31;;;;;;;19.23;14.68;;;;;;;;;;12838176;23;20056;-76
2023/09/02 01:11:33;;;;;;;19.67;14.57;;;;;;;;;;12885419;23;20271;-76
2023/09/02 01:16:33;;;;;;;21.27;14.52;;;;;;;;;;12871904;23;20032;-76
2023/09/02 01:21:52;;;;;;;24.63;16.30;;;;;;;;;;12838196;23;20007;-76
2023/09/02 01:26:55;;;;;;;21.45;16.23;;;;;;;;;;12837453;23;20001;-76
2023/09/02 01:31:56;;;;;;;24.55;16.48;;;;;;;;;;12885013;23;20278;-76
2023/09/02 01:36:57;;;;;;;26.58;17.40;;;;;;;;;;12837878;23;20187;-76
2023/09/02 01:41:59;;;;;;;22.95;16.25;;;;;;;;;;12885044;23;19985;-76
2023/09/02 01:47:01;;;;;;;23.83;15.30;;;;;;;;;;12884785;23;19989;-75
2023/09/02 01:52:02;;;;;;;19.75;15.40;;;;;;;;;;12838555;23;20007;-76
2023/09/02 01:57:03;;;;;;;18.77;14.50;;;;;;;;;;12837762;23;20063;-76
2023/09/02 02:02:03;;;;;;;21.45;15.23;;;;;;;;;;12837215;23;20075;-76
2023/09/02 02:07:05;;;;;;;16.27;12.13;;;;;;;;;;12883954;23;20274;-75
2023/09/02 02:12:06;;;;;;;19.38;14.73;;;;;;;;;;12884491;23;20035;-75
2023/09/02 02:17:06;;;;;;;20.35;14.75;;;;;;;;;;12837316;23;20019;-76
2023/09/02 02:22:07;;;;;;;20.50;14.88;;;;;;;;;;12884295;23;20041;-76
2023/09/02 02:27:07;;;;;;;19.40;13.48;;;;;;;;;;12884635;23;19988;-76
2023/09/02 02:32:07;;;;;;;22.23;14.40;;;;;;;;;;12883673;23;20262;-76
2023/09/02 02:37:08;;;;;;;23.25;14.25;;;;;;;;;;12884087;23;19992;-77
2023/09/02 02:42:08;;;;;;;19.50;13.32;;;;;;;;;;12836249;23;20038;-76
2023/09/02 02:47:09;;;;;;;19.25;14.45;;;;;;;;;;12883584;23;20004;-75
2023/09/02 02:52:09;;;;;;;19.97;12.60;;;;;;;;;;12883504;23;19995;-75
2023/09/02 02:57:09;;;;;;;15.35;12.18;;;;;;;;;;12883407;23;19988;-76
2023/09/02 03:02:09;;;;;;;17.63;10.52;;;;;;;;;;12883638;23;20020;-75
2023/09/02 03:07:10;;;;;;;17.65;10.88;;;;;;;;;;12883188;23;20000;-76
2023/09/02 03:12:10;;;;;;;15.60;11.32;;;;;;;;;;12883482;23;19989;-76
2023/09/02 03:17:10;;;;;;;15.68;11.75;;;;;;;;;;12869962;23;20064;-76
2023/09/02 03:22:10;;;;;;;17.58;12.25;;;;;;;;;;12887709;23;19993;-76
2023/09/02 03:27:11;;;;;;;15.55;12.13;;;;;;;;;;12887739;23;20182;-76
2023/09/02 03:32:11;;;;;;;16.95;13.05;;;;;;;;;;12888021;23;20040;-76
2023/09/02 03:37:11;;;;;;;16.45;11.77;;;;;;;;;;12887448;23;20004;-77
2023/09/02 03:42:11;;;;;;;16.73;10.98;;;;;;;;;;12887129;23;19989;-76
2023/09/02 03:47:11;;;;;;;17.77;11.00;;;;;;;;;;12885549;23;19997;-76
2023/09/02 03:52:12;;;;;;;16.15;11.93;;;;;;;;;;12836022;23;20024;-76
2023/09/02 03:57:12;;;;;;;14.90;11.35;;;;;;;;;;12882900;23;20214;-76
2023/09/02 04:02:13;;;;;;;16.83;12.23;;;;;;;;;;12883967;23;19992;-76
2023/09/02 04:07:13;;;;;;;15.98;12.30;;;;;;;;;;12883189;23;19997;-77
2023/09/02 04:12:14;;;;;;;18.52;13.40;;;;;;;;;;12882420;23;20318;-76
2023/09/02 04:17:16;;;;;;;16.92;10.98;;;;;;;;;;12869381;23;20005;-76
2023/09/02 04:22:16;;;;;;;22.73;11.65;;;;;;;;;;12886884;23;20171;-75
2023/09/02 04:27:17;;;;;;;18.67;12.50;;;;;;;;;;12886068;23;19992;-76
2023/09/02 04:32:17;;;;;;;20.95;12.52;;;;;;;;;;12886388;23;19999;-75
2023/09/02 04:37:18;;;;;;;19.80;12.57;;;;;;;;;;12886417;23;20013;-76
2023/09/02 04:42:18;;;;;;;16.63;12.35;;;;;;;;;;12886145;23;20046;-76
2023/09/02 04:47:19;;;;;;;19.60;13.40;;;;;;;;;;12885828;23;19989;-76
2023/09/02 04:52:19;;;;;;;25.33;12.10;;;;;;;;;;12884347;23;20001;-76
2023/09/02 04:57:20;;;;;;;23.75;13.73;;;;;;;;;;12884149;23;20294;-76
2023/09/02 05:02:20;;;;;;;16.50;12.00;;;;;;;;;;12885174;23;20227;-77
2023/09/02 05:07:20;;;;;;;20.67;13.43;;;;;;;;;;12883542;23;19996;-74
2023/09/02 05:12:20;;;;;;;18.52;13.15;;;;;;;;;;12884277;23;19997;-77
2023/09/02 05:17:21;;;;;;;19.02;11.93;;;;;;;;;;12867634;23;20024;-76
2023/09/02 05:22:22;;;;;;;15.93;11.27;;;;;;;;;;12884197;23;20226;-76
2023/09/02 05:27:22;;;;;;;17.25;10.57;;;;;;;;;;12880527;23;19997;-74
2023/09/02 05:32:23;;;;;;;15.07;11.23;;;;;;;;;;12879799;23;20024;-77
2023/09/02 05:37:23;;;;;;;18.52;10.80;;;;;;;;;;12870960;23;20250;-74
2023/09/02 05:42:23;;;;;;;19.13;11.25;;;;;;;;;;12867190;23;20148;-76
2023/09/02 05:47:25;;;;;;;15.90;11.40;;;;;;;;;;12864932;23;20000;-76
2023/09/02 05:52:25;;;;;;;17.42;10.38;;;;;;;;;;12865129;23;20012;-80
2023/09/02 05:57:25;;;;;;;14.13;9.57;;;;;;;;;;12821471;23;20008;-78
2023/09/02 06:02:27;;;;;;;11.50;8.55;;;;;;;;;;12863823;23;19996;-71
2023/09/02 06:07:28;;;;;;;22.67;11.52;;;;;;;;;;12818407;23;20071;-72
2023/09/02 06:12:28;;;;;;;19.77;11.85;;;;;;;;;;12865344;23;20000;-74
2023/09/02 06:17:30;;;;;;;19.75;11.65;;;;;;;;;;12848528;23;20520;-78
2023/09/02 06:22:32;;;;;;;15.48;10.85;;;;;;;;;;12821023;23;20035;-76
2023/09/02 06:27:32;;;;;;;16.55;12.02;;;;;;;;;;12866914;23;19989;-77
2023/09/02 06:32:33;;;;;;;17.17;12.13;;;;;;;;;;12867928;23;20000;-80
2023/09/02 06:37:33;;;;;;;17.08;11.10;;;;;;;;;;12865741;23;19993;-78
2023/09/02 06:42:33;;;;;;;26.63;11.23;;;;;;;;;;12871241;23;20000;-79
2023/09/02 06:47:34;;;;;;;16.05;11.32;;;;;;;;;;12863623;23;20050;-74
2023/09/02 06:52:34;;;;;;;13.43;9.88;;;;;;;;;;12812793;23;20024;-73
2023/09/02 06:57:34;;;;;;;17.77;10.73;;;;;;;;;;12860982;23;20322;-76
2023/09/02 07:02:34;;;;;;;15.10;10.73;;;;;;;;;;12813858;23;20000;-75
2023/09/02 07:07:37;;;;;;;13.90;9.82;;;;;;;;;;12860850;23;20318;-75
2023/09/02 07:12:38;;;;;;;13.88;10.13;;;;;;;;;;12860103;23;20332;-75
2023/09/02 07:17:38;;;;;;;14.60;10.48;;;;;;;;;;12839958;23;20016;-76
2023/09/02 07:22:38;;;;;;;17.27;9.10;;;;;;;;;;12856950;23;20008;-75
2023/09/02 07:27:39;;;;;;;13.73;8.10;;;;;;;;;;12809807;23;20015;-74
2023/09/02 07:32:39;;;;;;;9.77;7.93;;;;;;;;;;12860549;23;20273;-74
2023/09/02 07:37:39;;;;;;;12.82;7.53;;;;;;;;;;12860019;23;19996;-75
2023/09/02 07:42:39;;;;;;;13.23;7.32;;;;;;;;;;12859502;23;20206;-74
2023/09/02 07:47:40;;;;;;;13.18;7.00;;;;;;;;;;12861346;23;20000;-75
2023/09/02 07:52:40;;;;;;;8.40;6.15;;;;;;;;;;12861524;23;20103;-75
2023/09/02 07:57:40;;;;;;;10.68;6.25;;;;;;;;;;12813552;23;20417;-75
2023/09/02 08:02:40;;;;;;;9.07;5.40;;;;;;;;;;12860651;23;20198;-75
2023/09/02 08:07:41;;;;;;;7.23;5.03;;;;;;;;;;12864959;23;20088;-75
2023/09/02 08:12:42;;;;;;;13.18;5.57;;;;;;;;;;12863669;23;20272;-75
2023/09/02 08:17:42;;;;;;;12.15;6.40;;;;;;;;;;12845127;23;20076;-75
2023/09/02 08:22:43;;;;;;;9.30;5.10;;;;;;;;;;12864364;23;20008;-75
2023/09/02 08:27:45;;;;;;;5.55;4.18;;;;;;;;;;12865608;23;20295;-75
2023/09/02 08:32:45;;;;;;;11.80;4.22;;;;;;;;;;12869202;23;19996;-75
2023/09/02 08:37:45;;;;;;;9.30;3.40;;;;;;;;;;12869869;23;20032;-75
2023/09/02 08:42:47;;;;;;;5.37;3.47;;;;;;;;;;12870422;23;20287;-76
2023/09/02 08:47:51;;;;;;;7.15;4.35;;;;;;;;;;12821933;23;20163;-75
2023/09/02 08:52:52;;;;;;;6.47;4.65;;;;;;;;;;12869175;23;20210;-75
2023/09/02 08:57:52;;;;;;;7.40;4.80;;;;;;;;;;12868993;23;20001;-76
2023/09/02 09:02:53;;;;;;;5.50;4.28;;;;;;;;;;12868918;23;20221;-75
2023/09/02 09:07:53;;;;;;;8.18;4.50;;;;;;;;;;12869175;23;20183;-75
2023/09/02 09:12:54;;;;;;;5.38;4.45;;;;;;;;;;12868472;23;20028;-75
2023/09/02 09:17:54;;;;;;;8.00;4.55;;;;;;;;;;12848849;23;20021;-75
2023/09/02 09:22:55;;;;;;;5.93;4.18;;;;;;;;;;12869296;23;20039;-75
2023/09/02 09:28:06;;;;;;;9.67;4.00;;;;;;;;;;12820546;23;20197;-75
2023/09/02 09:33:07;;;;;;;6.00;4.85;;;;;;;;;;12868068;23;20004;-76
2023/09/02 09:38:07;;;;;;;6.35;4.55;;;;;;;;;;12868381;23;19997;-75
2023/09/02 09:43:15;;;;;;;5.47;4.90;;;;;;;;;;12867668;23;20272;-75
2023/09/02 09:48:15;;;;;;;7.80;4.38;;;;;;;;;;12868095;23;20203;-75
2023/09/02 09:53:16;;;;;;;4.53;3.67;;;;;;;;;;12868547;23;20559;-75
2023/09/02 09:58:22;;;;;;;6.80;3.78;;;;;;;;;;12868035;23;20000;-74
2023/09/02 10:03:28;;;;;;;4.10;3.53;;;;;;;;;;12819934;23;20221;-75
2023/09/02 10:08:47;;;;;;;4.18;3.10;;;;;;;;;;12867379;23;20267;-75
2023/09/02 10:13:53;;;;;;;2.80;2.40;;;;;;;;;;12865867;23;20015;-74
2023/09/02 10:18:54;;;;;;;4.53;2.70;;;;;;;;;;12867558;23;20008;-75
2023/09/02 10:23:55;;;;;;;2.90;2.42;;;;;;;;;;12867808;23;20052;-75
2023/09/02 10:28:58;;;;;;;2.78;2.50;;;;;;;;;;12866959;23;19992;-75
2023/09/02 10:34:11;;;;;;;2.30;2.10;;;;;;;;;;12866670;23;20011;-76
2023/09/02 10:39:16;;;;;;;5.05;2.35;;;;;;;;;;12866922;23;19997;-75
2023/09/02 10:44:17;;;;;;;;;;;;;;;;;;12868186;23;20023;-76
2023/09/02 10:49:18;;;;;;;3.67;2.30;;;;;;;;;;12866633;23;20089;-76
2023/09/02 10:54:18;;;;;;;3.85;2.72;;;;;;;;;;12866918;23;20324;-76
2023/09/02 10:59:31;;;;;;;3.20;2.50;;;;;;;;;;12866920;23;20008;-76
2023/09/02 11:04:40;;;;;;;4.22;2.13;;;;;;;;;;12866903;23;20000;-76
2023/09/02 11:09:54;;;;;;;3.05;2.50;;;;;;;;;;12866835;23;20275;-76
2023/09/02 11:15:07;;;;;;;7.05;2.35;;;;;;;;;;12860335;23;20358;-76
2023/09/02 11:20:08;;;;;;;4.43;2.13;;;;;;;;;;12867680;23;20035;-76
2023/09/02 11:25:08;;;;;;;5.95;2.63;;;;;;;;;;12867505;23;20020;-76
2023/09/02 11:30:09;;;;;;;3.90;3.33;;;;;;;;;;12820821;23;20191;-76
2023/09/02 11:35:11;;;;;;;4.53;3.45;;;;;;;;;;12868749;23;20001;-76
2023/09/02 11:40:15;;;;;;;4.75;3.80;;;;;;;;;;12869263;23;20001;-76
2023/09/02 11:45:15;;;;;;;4.57;3.90;;;;;;;;;;12870471;23;20156;-76
2023/09/02 11:50:16;;;;;;;4.03;3.43;;;;;;;;;;12870812;23;20004;-75
2023/09/02 11:55:16;;;;;;;9.32;3.80;;;;;;;;;;12822749;23;20000;-77
2023/09/02 12:00:21;;;;;;;6.50;3.97;;;;;;;;;;12870327;23;19988;-75
2023/09/02 12:05:21;;;;;;;6.85;3.88;;;;;;;;;;12870699;23;20000;-75
2023/09/02 12:10:26;;;;;;;4.73;3.77;;;;;;;;;;12869560;23;19998;-74
2023/09/02 12:15:26;;;;;;;5.90;4.30;;;;;;;;;;12862331;23;20056;-73
2023/09/02 12:20:27;;;;;;;5.85;3.78;;;;;;;;;;12823933;23;20009;-77
2023/09/02 12:25:27;;;;;;;5.70;4.35;;;;;;;;;;12870430;23;20066;-73
2023/09/02 12:30:30;;;;;;;7.10;4.03;;;;;;;;;;12821409;23;20004;-73
2023/09/02 12:35:30;;;;;;;8.52;5.15;;;;;;;;;;12869455;23;20008;-74
2023/09/02 12:40:32;;;;;;;7.90;4.72;;;;;;;;;;12869170;23;20202;-74
2023/09/02 12:45:36;;;;;;;8.85;5.70;;;;;;;;;;12869533;23;20071;-75
2023/09/02 12:50:36;;;;;;;8.88;4.80;;;;;;;;;;12868935;23;20050;-74
2023/09/02 12:55:39;;;;;;;7.73;4.17;;;;;;;;;;12868859;23;20004;-74
2023/09/02 13:00:39;;;;;;;6.28;4.22;;;;;;;;;;12821943;23;20179;-74
2023/09/02 13:05:39;;;;;;;5.70;3.53;;;;;;;;;;12868867;23;20005;-74
2023/09/02 13:10:40;;;;;;;5.70;3.80;;;;;;;;;;12867954;23;20311;-74
2023/09/02 13:15:40;;;;;;;6.82;4.65;;;;;;;;;;12859427;23;20074;-74
2023/09/02 13:20:40;;;;;;;10.20;3.88;;;;;;;;;;12869451;23;20202;-74
2023/09/02 13:25:42;;;;;;;5.53;4.03;;;;;;;;;;12868933;23;20003;-87
2023/09/02 13:30:42;;;;;;;5.70;3.63;;;;;;;;;;12869257;23;20230;-78
2023/09/02 13:35:44;;;;;;;5.05;3.80;;;;;;;;;;12868860;23;20052;-89
2023/09/02 13:40:44;;;;;;;7.10;3.70;;;;;;;;;;12821178;23;20015;-72
2023/09/02 13:45:45;;;;;;;6.15;3.83;;;;;;;;;;12870559;23;20007;-79
2023/09/02 13:50:45;;;;;;;6.32;3.97;;;;;;;;;;12869942;23;20035;-79
2023/09/02 13:55:46;;;;;;;7.73;3.73;;;;;;;;;;12815219;23;20000;-83
2023/09/02 14:00:46;;;;;;;6.72;4.03;;;;;;;;;;12820755;23;20151;-72
2023/09/02 14:05:47;;;;;;;6.97;3.42;;;;;;;;;;12867843;23;19996;-72
2023/09/02 14:10:48;;;;;;;6.85;4.53;;;;;;;;;;12868065;23;20014;-72
2023/09/02 14:15:48;;;;;;;7.05;4.47;;;;;;;;;;12858543;23;20220;-72
2023/09/02 14:20:49;;;;;;;9.80;4.53;;;;;;;;;;12867272;23;20351;-72
2023/09/02 14:25:49;;;;;;;4.70;4.00;;;;;;;;;;12867495;23;20000;-72
2023/09/02 14:30:50;;;;;;;5.93;4.68;;;;;;;;;;12866808;23;20000;-73
2023/09/02 14:35:50;;;;;;;7.88;5.30;;;;;;;;;;12868006;23;20012;-75
2023/09/02 14:40:51;;;;;;;7.57;4.20;;;;;;;;;;12867970;23;20144;-76
2023/09/02 14:45:51;;;;;;;7.90;4.53;;;;;;;;;;12868189;23;20048;-70
2023/09/02 14:50:52;;;;;;;6.80;4.55;;;;;;;;;;12820531;23;20294;-76
2023/09/02 14:55:52;;;;;;;7.18;4.68;;;;;;;;;;12867642;23;20053;-72
2023/09/02 15:00:53;;;;;;;5.53;4.03;;;;;;;;;;12818548;23;20001;-72
2023/09/02 15:05:57;;;;;;;5.55;3.80;;;;;;;;;;12864917;23;19999;-71
2023/09/02 15:10:59;;;;;;;5.22;3.45;;;;;;;;;;12863388;23;20289;-71
2023/09/02 15:15:59;;;;;;;6.60;3.88;;;;;;;;;;12852116;23;20039;-71
2023/09/02 15:21:01;;;;;;;6.25;4.32;;;;;;;;;;12864462;23;20005;-71
2023/09/02 15:26:01;;;;;;;8.07;4.72;;;;;;;;;;12866375;23;20005;-70
2023/09/02 15:31:04;;;;;;;6.03;4.53;;;;;;;;;;12865733;23;20163;-71
2023/09/02 15:36:12;;;;;;;7.78;4.28;;;;;;;;;;12865704;23;20348;-70
2023/09/02 15:41:13;;;;;;;8.25;4.55;;;;;;;;;;12866587;23;20023;-70
2023/09/02 15:46:13;;;;;;;5.78;4.55;;;;;;;;;;12866703;23;20001;-70
2023/09/02 15:51:13;;;;;;;7.40;4.72;;;;;;;;;;12866496;23;20299;-70
2023/09/02 15:56:14;;;;;;;9.43;5.47;;;;;;;;;;12865668;23;19996;-70
2023/09/02 16:01:14;;;;;;;7.43;5.25;;;;;;;;;;12866995;23;20004;-70
2023/09/02 16:06:14;;;;;;;10.32;5.57;;;;;;;;;;12865475;23;20183;-70
2023/09/02 16:11:14;;;;;;;6.72;5.38;;;;;;;;;;12866066;23;20131;-70
2023/09/02 16:16:15;;;;;;;7.88;5.40;;;;;;;;;;12854415;23;20349;-70
2023/09/02 16:21:16;;;;;;;8.30;5.00;;;;;;;;;;12865176;23;20178;-70
2023/09/02 16:26:16;;;;;;;9.30;4.97;;;;;;;;;;12821804;23;20005;-70
2023/09/02 16:31:16;;;;;;;7.53;5.38;;;;;;;;;;12870099;23;19988;-70
2023/09/02 16:36:16;;;;;;;7.30;5.40;;;;;;;;;;12869567;23;20004;-69
2023/09/02 16:41:19;;;;;;;15.83;5.27;;;;;;;;;;12869138;23;20435;-69
2023/09/02 16:46:19;;;;;;;6.93;5.10;;;;;;;;;;12870177;23;20043;-70
2023/09/02 16:51:20;;;;;;;7.80;5.72;;;;;;;;;;12869026;23;20243;-70
2023/09/02 16:56:22;;;;;;;8.88;5.75;;;;;;;;;;12869198;23;20032;-71
2023/09/02 17:01:23;;;;;;;8.02;5.70;;;;;;;;;;12869208;23;20000;-71
2023/09/02 17:06:27;;;;;;;8.02;6.05;;;;;;;;;;12868536;23;20001;-71
2023/09/02 17:11:27;;;;;;;8.32;5.70;;;;;;;;;;12868161;23;20012;-71
2023/09/02 17:16:27;;;;;;;10.02;5.20;;;;;;;;;;12855928;23;20299;-71
2023/09/02 17:21:28;;;;;;;9.88;6.50;;;;;;;;;;12868492;23;20005;-69
2023/09/02 17:26:28;;;;;;;9.03;6.67;;;;;;;;;;12867820;23;20007;-70
2023/09/02 17:31:29;;;;;;;10.68;5.68;;;;;;;;;;12868471;23;20220;-70
2023/09/02 17:36:29;;;;;;;10.75;5.90;;;;;;;;;;12867529;23;20008;-71
2023/09/02 17:41:29;;;;;;;12.73;6.10;;;;;;;;;;12821413;23;20005;-74
2023/09/02 17:46:30;;;;;;;9.45;6.32;;;;;;;;;;12871511;23;20201;-79
2023/09/02 17:51:30;;;;;;;10.77;6.28;;;;;;;;;;12869165;23;20406;-86
2023/09/02 17:56:30;;;;;;;16.05;8.68;;;;;;;;;;12867207;23;19996;-72
2023/09/02 18:01:31;;;;;;;10.80;6.77;;;;;;;;;;12868874;23;19988;-77
2023/09/02 18:06:31;;;;;;;15.32;6.50;;;;;;;;;;12867718;23;20198;-73
2023/09/02 18:11:32;;;;;;;12.40;6.38;;;;;;;;;;12867956;23;20221;-80
2023/09/02 18:16:32;;;;;;;10.35;5.88;;;;;;;;;;12819730;23;20076;-76
2023/09/02 18:21:32;;;;;;;11.07;7.10;;;;;;;;;;12868525;23;20067;-77
2023/09/02 18:26:42;;;;;;;9.75;7.35;;;;;;;;;;12870741;23;20003;-81
2023/09/02 18:31:42;;;;;;;11.20;6.35;;;;;;;;;;12820580;23;20012;-73
2023/09/02 18:36:42;;;;;;;11.07;6.97;;;;;;;;;;12866089;23;20249;-72
2023/09/02 18:41:44;;;;;;;8.93;6.93;;;;;;;;;;12865181;23;20042;-73
2023/09/02 18:46:44;;;;;;;12.23;8.25;;;;;;;;;;12865718;23;20318;-73
2023/09/02 18:51:45;;;;;;;11.50;6.82;;;;;;;;;;12864216;23;19992;-73
2023/09/02 18:56:45;;;;;;;18.50;7.77;;;;;;;;;;12816160;23;20349;-73
2023/09/02 19:01:45;;;;;;;13.45;7.80;;;;;;;;;;12863414;23;20126;-73
2023/09/02 19:06:45;;;;;;;12.82;7.45;;;;;;;;;;12867752;23;19997;-79
2023/09/02 19:11:46;;;;;;;13.18;7.68;;;;;;;;;;12823701;23;20333;-78
2023/09/02 19:16:46;;;;;;;11.75;8.00;;;;;;;;;;12856464;23;20055;-81
2023/09/02 19:21:46;;;;;;;12.15;7.03;;;;;;;;;;12822483;23;20281;-79
2023/09/02 19:26:46;;;;;;;13.93;8.25;;;;;;;;;;12868863;23;19996;-78
2023/09/02 19:31:47;;;;;;;11.77;8.55;;;;;;;;;;12866611;23;20091;-75
2023/09/02 19:36:47;;;;;;;11.60;7.70;;;;;;;;;;12860917;23;20295;-77
2023/09/02 19:41:48;;;;;;;10.02;6.45;;;;;;;;;;12867137;23;20338;-83
2023/09/02 19:46:48;;;;;;;12.90;7.05;;;;;;;;;;12797513;23;20322;-69
2023/09/02 19:51:52;;;;;;;10.25;7.40;;;;;;;;;;12867296;23;20001;-85
2023/09/02 19:56:53;;;;;;;15.43;6.82;;;;;;;;;;12819350;23;20012;-73
2023/09/02 20:01:53;;;;;;;14.60;7.93;;;;;;;;;;12819952;23;20028;-77
2023/09/02 20:12:35;;;;;;;13.50;8.80;;;;;;;;;;12860940;23;20012;-84
2023/09/02 20:17:39;;;;;;;10.50;7.60;;;;;;;;;;12790845;23;20040;-81
2023/09/02 20:22:39;;;;;;;15.18;7.32;;;;;;;;;;12807939;23;20009;-80
2023/09/02 20:27:40;;;;;;;9.93;7.22;;;;;;;;;;12808263;23;19997;-81
2023/09/02 20:32:41;;;;;;;10.50;6.63;;;;;;;;;;12757351;23;20024;-76
2023/09/02 20:37:41;;;;;;;11.80;6.93;;;;;;;;;;12794114;23;20001;-77
2023/09/02 20:42:41;;;;;;;10.98;6.63;;;;;;;;;;12806484;23;20009;-77
2023/09/02 20:47:42;;;;;;;15.33;7.13;;;;;;;;;;12807706;23;20096;-73
2023/09/02 20:52:42;;;;;;;8.60;6.40;;;;;;;;;;12807523;23;20207;-74
2023/09/02 20:57:44;;;;;;;9.52;6.20;;;;;;;;;;12807572;23;19996;-76
2023/09/02 21:02:44;;;;;;;10.07;7.38;;;;;;;;;;12807412;23;20348;-75
2023/09/02 21:07:48;;;;;;;8.85;6.40;;;;;;;;;;12806713;23;20306;-83
2023/09/02 21:12:48;;;;;;;11.85;7.75;;;;;;;;;;12809523;23;20032;-70
2023/09/02 21:17:48;;;;;;;11.18;6.88;;;;;;;;;;12849424;23;20226;-70
2023/09/02 21:22:49;;;;;;;10.23;7.13;;;;;;;;;;12822328;23;20055;-71
2023/09/02 21:27:49;;;;;;;11.68;6.80;;;;;;;;;;12869263;23;19993;-71
2023/09/02 21:32:49;;;;;;;10.85;6.65;;;;;;;;;;12868305;23;20175;-71
2023/09/02 21:37:49;;;;;;;9.00;6.35;;;;;;;;;;12858307;23;20180;-71
2023/09/02 21:42:50;;;;;;;13.95;7.13;;;;;;;;;;12868887;23;20174;-71
2023/09/02 21:47:50;;;;;;;9.73;6.93;;;;;;;;;;12868237;23;20008;-72
2023/09/02 21:52:50;;;;;;;11.18;7.05;;;;;;;;;;12867634;23;20182;-70
2023/09/02 21:57:50;;;;;;;10.35;6.90;;;;;;;;;;12820736;23;20345;-73
2023/09/02 22:02:53;;;;;;;12.67;7.23;;;;;;;;;;12819847;23;20063;-70
2023/09/02 22:07:53;;;;;;;15.73;7.80;;;;;;;;;;12868881;23;20000;-72
2023/09/02 22:12:55;;;;;;;14.88;7.90;;;;;;;;;;12868069;23;19999;-72
2023/09/02 22:17:55;;;;;;;13.65;7.05;;;;;;;;;;12867572;23;20091;-72
2023/09/02 22:22:55;;;;;;;14.18;7.88;;;;;;;;;;12867433;23;19992;-72
2023/09/02 22:27:56;;;;;;;11.35;7.78;;;;;;;;;;12867926;23;20008;-70
2023/09/02 22:32:56;;;;;;;12.27;8.60;;;;;;;;;;12867047;23;20278;-70
2023/09/02 22:37:56;;;;;;;15.27;9.27;;;;;;;;;;12857012;23;20039;-70
2023/09/02 22:42:56;;;;;;;15.77;8.88;;;;;;;;;;12819964;23;20466;-70
2023/09/02 22:47:57;;;;;;;12.33;9.00;;;;;;;;;;12867727;23;20004;-71
2023/09/02 22:52:57;;;;;;;12.52;8.27;;;;;;;;;;12866926;23;20011;-70
2023/09/02 22:57:59;;;;;;;10.17;8.43;;;;;;;;;;12866851;23;19996;-70
2023/09/02 23:02:59;;;;;;;13.88;8.57;;;;;;;;;;12867077;23;20023;-70
2023/09/02 23:08:00;;;;;;;12.60;7.80;;;;;;;;;;12866754;23;20016;-70
2023/09/02 23:13:01;;;;;;;15.20;9.15;;;;;;;;;;12866397;23;20015;-71
2023/09/02 23:18:01;;;;;;;11.13;8.37;;;;;;;;;;12867174;23;20059;-70
2023/09/02 23:23:02;;;;;;;13.70;8.80;;;;;;;;;;12818664;23;20033;-70
2023/09/02 23:28:02;;;;;;;11.75;8.60;;;;;;;;;;12866687;23;20019;-70
2023/09/02 23:33:02;;;;;;;12.10;8.70;;;;;;;;;;12868077;23;20004;-70
2023/09/02 23:38:03;;;;;;;13.97;8.37;;;;;;;;;;12859585;23;20365;-70
2023/09/02 23:43:03;;;;;;;13.38;8.73;;;;;;;;;;12870599;23;20267;-70
2023/09/02 23:48:04;;;;;;;13.93;8.10;;;;;;;;;;12870790;23;20004;-70
2023/09/02 23:53:05;;;;;;;15.45;8.63;;;;;;;;;;12870305;23;20001;-70
2023/09/02 23:58:05;;;;;;;13.60;9.80;;;;;;;;;;12870821;23;19992;-71
